sensor_id;sensor_type;location;lat;lon;timestamp;temperature;humidity
9998;DHT22;5038;53.064;8.624;2024-01-25T00:00:49;8.00;99.90
9998;DHT22;5038;53.064;8.624;2024-01-25T00:03:17;8.00;99.90
9998;DHT22;5038;53.064;8.624;2024-01-25T00:05:47;8.00;99.90
9998;DHT22;5038;53.064;8.624;2024-01-25T00:08:14;8.00;99.90
9998;DHT22;5038;53.064;8.624;2024-01-25T00:10:43;8.00;99.90
9998;DHT22;5038;53.064;8.624;2024-01-25T00:13:12;8.00;99.90
9998;DHT22;5038;53.064;8.624;2024-01-25T00:15:41;8.00;99.90
9998;DHT22;5038;53.064;8.624;2024-01-25T00:18:09;8.00;99.90
9998;DHT22;5038;53.064;8.624;2024-01-25T00:20:38;8.00;99.90
9998;DHT22;5038;53.064;8.624;2024-01-25T00:23:06;8.00;99.90
9998;DHT22;5038;53.064;8.624;2024-01-25T00:25:35;8.00;99.90
9998;DHT22;5038;53.064;8.624;2024-01-25T00:28:03;8.00;99.90
9998;DHT22;5038;53.064;8.624;2024-01-25T00:30:33;8.00;99.90
9998;DHT22;5038;53.064;8.624;2024-01-25T00:33:02;8.00;99.90
9998;DHT22;5038;53.064;8.624;2024-01-25T00:35:31;8.00;99.90
9998;DHT22;5038;53.064;8.624;2024-01-25T00:38:00;8.00;99.90
9998;DHT22;5038;53.064;8.624;2024-01-25T00:40:28;8.00;99.90
9998;DHT22;5038;53.064;8.624;2024-01-25T00:42:57;8.00;99.90
9998;DHT22;5038;53.064;8.624;2024-01-25T00:45:26;8.00;99.90
9998;DHT22;5038;53.064;8.624;2024-01-25T00:47:56;8.00;99.90
9998;DHT22;5038;53.064;8.624;2024-01-25T00:50:26;8.00;99.90
9998;DHT22;5038;53.064;8.624;2024-01-25T00:52:55;8.00;99.90
9998;DHT22;5038;53.064;8.624;2024-01-25T00:55:24;8.00;99.90
9998;DHT22;5038;53.064;8.624;2024-01-25T00:57:53;8.00;99.90
9998;DHT22;5038;53.064;8.624;2024-01-25T01:00:22;8.00;99.90
9998;DHT22;5038;53.064;8.624;2024-01-25T01:02:54;7.90;99.90
9998;DHT22;5038;53.064;8.624;2024-01-25T01:05:26;7.90;99.90
9998;DHT22;5038;53.064;8.624;2024-01-25T01:07:55;7.90;99.90
9998;DHT22;5038;53.064;8.624;2024-01-25T01:10:23;7.90;99.90
9998;DHT22;5038;53.064;8.624;2024-01-25T01:12:52;7.90;99.90
9998;DHT22;5038;53.064;8.624;2024-01-25T01:15:21;7.90;99.90
9998;DHT22;5038;53.064;8.624;2024-01-25T01:17:49;7.90;99.90
9998;DHT22;5038;53.064;8.624;2024-01-25T01:20:18;7.80;99.90
9998;DHT22;5038;53.064;8.624;2024-01-25T01:22:48;7.90;99.90
9998;DHT22;5038;53.064;8.624;2024-01-25T01:25:17;7.90;99.90
9998;DHT22;5038;53.064;8.624;2024-01-25T01:27:46;7.90;99.90
9998;DHT22;5038;53.064;8.624;2024-01-25T01:30:14;7.90;99.90
9998;DHT22;5038;53.064;8.624;2024-01-25T01:32:42;7.90;99.90
9998;DHT22;5038;53.064;8.624;2024-01-25T01:35:11;7.90;99.90
9998;DHT22;5038;53.064;8.624;2024-01-25T01:37:39;7.90;99.90
9998;DHT22;5038;53.064;8.624;2024-01-25T01:40:10;7.90;99.90
9998;DHT22;5038;53.064;8.624;2024-01-25T01:42:38;7.90;99.90
9998;DHT22;5038;53.064;8.624;2024-01-25T01:45:10;7.90;99.90
9998;DHT22;5038;53.064;8.624;2024-01-25T01:47:39;7.80;99.90
9998;DHT22;5038;53.064;8.624;2024-01-25T01:50:08;7.80;99.90
9998;DHT22;5038;53.064;8.624;2024-01-25T01:52:37;7.80;99.90
9998;DHT22;5038;53.064;8.624;2024-01-25T01:55:07;7.80;99.90
9998;DHT22;5038;53.064;8.624;2024-01-25T01:57:37;7.80;99.90
9998;DHT22;5038;53.064;8.624;2024-01-25T02:00:07;7.80;99.90
9998;DHT22;5038;53.064;8.624;2024-01-25T02:02:39;7.80;99.90
9998;DHT22;5038;53.064;8.624;2024-01-25T02:05:08;7.80;99.90
9998;DHT22;5038;53.064;8.624;2024-01-25T02:07:37;7.80;99.90
9998;DHT22;5038;53.064;8.624;2024-01-25T02:10:08;7.70;99.90
9998;DHT22;5038;53.064;8.624;2024-01-25T02:12:38;7.70;99.90
9998;DHT22;5038;53.064;8.624;2024-01-25T02:15:07;7.70;99.90
9998;DHT22;5038;53.064;8.624;2024-01-25T02:17:35;7.70;99.90
9998;DHT22;5038;53.064;8.624;2024-01-25T02:20:05;7.70;99.90
9998;DHT22;5038;53.064;8.624;2024-01-25T02:22:35;7.70;99.90
9998;DHT22;5038;53.064;8.624;2024-01-25T02:25:04;7.70;99.90
9998;DHT22;5038;53.064;8.624;2024-01-25T02:27:33;7.70;99.90
9998;DHT22;5038;53.064;8.624;2024-01-25T02:30:06;7.70;99.90
9998;DHT22;5038;53.064;8.624;2024-01-25T02:32:35;7.60;99.90
9998;DHT22;5038;53.064;8.624;2024-01-25T02:35:04;7.60;99.90
9998;DHT22;5038;53.064;8.624;2024-01-25T02:37:32;7.60;99.90
9998;DHT22;5038;53.064;8.624;2024-01-25T02:40:02;7.60;99.90
9998;DHT22;5038;53.064;8.624;2024-01-25T02:42:30;7.60;99.90
9998;DHT22;5038;53.064;8.624;2024-01-25T02:44:59;7.60;99.90
9998;DHT22;5038;53.064;8.624;2024-01-25T02:47:27;7.50;99.90
9998;DHT22;5038;53.064;8.624;2024-01-25T02:49:55;7.50;99.90
9998;DHT22;5038;53.064;8.624;2024-01-25T02:52:23;7.50;99.90
9998;DHT22;5038;53.064;8.624;2024-01-25T02:54:52;7.50;99.90
9998;DHT22;5038;53.064;8.624;2024-01-25T02:57:21;7.50;99.90
9998;DHT22;5038;53.064;8.624;2024-01-25T02:59:50;7.50;99.90
9998;DHT22;5038;53.064;8.624;2024-01-25T03:02:18;7.50;99.90
9998;DHT22;5038;53.064;8.624;2024-01-25T03:04:46;7.40;99.90
9998;DHT22;5038;53.064;8.624;2024-01-25T03:07:15;7.40;99.90
9998;DHT22;5038;53.064;8.624;2024-01-25T03:09:43;7.40;99.90
9998;DHT22;5038;53.064;8.624;2024-01-25T03:12:12;7.40;99.90
9998;DHT22;5038;53.064;8.624;2024-01-25T03:14:41;7.40;99.90
9998;DHT22;5038;53.064;8.624;2024-01-25T03:17:09;7.40;99.90
9998;DHT22;5038;53.064;8.624;2024-01-25T03:19:39;7.40;99.90
9998;DHT22;5038;53.064;8.624;2024-01-25T03:22:07;7.40;99.90
9998;DHT22;5038;53.064;8.624;2024-01-25T03:24:37;7.40;99.90
9998;DHT22;5038;53.064;8.624;2024-01-25T03:27:06;7.30;99.90
9998;DHT22;5038;53.064;8.624;2024-01-25T03:29:42;7.30;99.90
9998;DHT22;5038;53.064;8.624;2024-01-25T03:32:10;7.30;99.90
9998;DHT22;5038;53.064;8.624;2024-01-25T03:34:39;7.30;99.90
9998;DHT22;5038;53.064;8.624;2024-01-25T03:37:07;7.30;99.90
9998;DHT22;5038;53.064;8.624;2024-01-25T03:39:36;7.30;99.90
9998;DHT22;5038;53.064;8.624;2024-01-25T03:42:04;7.30;99.90
9998;DHT22;5038;53.064;8.624;2024-01-25T03:44:32;7.30;99.90
9998;DHT22;5038;53.064;8.624;2024-01-25T03:47:02;7.30;99.90
9998;DHT22;5038;53.064;8.624;2024-01-25T03:49:30;7.30;99.90
9998;DHT22;5038;53.064;8.624;2024-01-25T03:51:59;7.30;99.90
9998;DHT22;5038;53.064;8.624;2024-01-25T03:54:27;7.30;99.90
9998;DHT22;5038;53.064;8.624;2024-01-25T03:56:56;7.30;99.90
9998;DHT22;5038;53.064;8.624;2024-01-25T03:59:24;7.30;99.90
9998;DHT22;5038;53.064;8.624;2024-01-25T04:01:52;7.30;99.90
9998;DHT22;5038;53.064;8.624;2024-01-25T04:04:22;7.30;99.90
9998;DHT22;5038;53.064;8.624;2024-01-25T04:06:50;7.30;99.90
9998;DHT22;5038;53.064;8.624;2024-01-25T04:09:19;7.30;99.90
9998;DHT22;5038;53.064;8.624;2024-01-25T04:11:47;7.30;99.90
9998;DHT22;5038;53.064;8.624;2024-01-25T04:14:16;7.30;99.90
9998;DHT22;5038;53.064;8.624;2024-01-25T04:16:44;7.30;99.90
9998;DHT22;5038;53.064;8.624;2024-01-25T04:19:14;7.30;99.90
9998;DHT22;5038;53.064;8.624;2024-01-25T04:21:44;7.30;99.90
9998;DHT22;5038;53.064;8.624;2024-01-25T04:24:12;7.30;99.90
9998;DHT22;5038;53.064;8.624;2024-01-25T04:26:40;7.30;99.90
9998;DHT22;5038;53.064;8.624;2024-01-25T04:29:08;7.20;99.90
9998;DHT22;5038;53.064;8.624;2024-01-25T04:31:42;7.20;99.90
9998;DHT22;5038;53.064;8.624;2024-01-25T04:34:13;7.20;99.90
9998;DHT22;5038;53.064;8.624;2024-01-25T04:36:43;7.20;99.90
9998;DHT22;5038;53.064;8.624;2024-01-25T04:39:11;7.20;99.90
9998;DHT22;5038;53.064;8.624;2024-01-25T04:41:40;7.20;99.90
9998;DHT22;5038;53.064;8.624;2024-01-25T04:44:08;7.20;99.90
9998;DHT22;5038;53.064;8.624;2024-01-25T04:46:36;7.20;99.90
9998;DHT22;5038;53.064;8.624;2024-01-25T04:49:04;7.20;99.90
9998;DHT22;5038;53.064;8.624;2024-01-25T04:51:33;7.20;99.90
9998;DHT22;5038;53.064;8.624;2024-01-25T04:54:03;7.20;99.90
9998;DHT22;5038;53.064;8.624;2024-01-25T04:56:31;7.20;99.90
9998;DHT22;5038;53.064;8.624;2024-01-25T04:58:59;7.20;99.90
9998;DHT22;5038;53.064;8.624;2024-01-25T05:01:27;7.20;99.90
9998;DHT22;5038;53.064;8.624;2024-01-25T05:03:56;7.20;99.90
9998;DHT22;5038;53.064;8.624;2024-01-25T05:06:24;7.20;99.90
9998;DHT22;5038;53.064;8.624;2024-01-25T05:08:52;7.20;99.90
9998;DHT22;5038;53.064;8.624;2024-01-25T05:11:22;7.20;99.90
9998;DHT22;5038;53.064;8.624;2024-01-25T05:13:50;7.10;99.90
9998;DHT22;5038;53.064;8.624;2024-01-25T05:16:18;7.10;99.90
9998;DHT22;5038;53.064;8.624;2024-01-25T05:18:47;7.10;99.90
9998;DHT22;5038;53.064;8.624;2024-01-25T05:21:15;7.10;99.90
9998;DHT22;5038;53.064;8.624;2024-01-25T05:23:43;7.10;99.90
9998;DHT22;5038;53.064;8.624;2024-01-25T05:26:12;7.10;99.90
9998;DHT22;5038;53.064;8.624;2024-01-25T05:28:41;7.10;99.90
9998;DHT22;5038;53.064;8.624;2024-01-25T05:31:10;7.10;99.90
9998;DHT22;5038;53.064;8.624;2024-01-25T05:33:39;7.10;99.90
9998;DHT22;5038;53.064;8.624;2024-01-25T05:36:08;7.00;99.90
9998;DHT22;5038;53.064;8.624;2024-01-25T05:38:36;7.00;99.90
9998;DHT22;5038;53.064;8.624;2024-01-25T05:41:05;7.00;99.90
9998;DHT22;5038;53.064;8.624;2024-01-25T05:43:33;7.00;99.90
9998;DHT22;5038;53.064;8.624;2024-01-25T05:46:03;7.00;99.90
9998;DHT22;5038;53.064;8.624;2024-01-25T05:48:31;7.00;99.90
9998;DHT22;5038;53.064;8.624;2024-01-25T05:51:00;7.00;99.90
9998;DHT22;5038;53.064;8.624;2024-01-25T05:53:28;7.00;99.90
9998;DHT22;5038;53.064;8.624;2024-01-25T05:55:57;6.90;99.90
9998;DHT22;5038;53.064;8.624;2024-01-25T05:58:25;7.00;99.90
9998;DHT22;5038;53.064;8.624;2024-01-25T06:00:53;6.90;99.90
9998;DHT22;5038;53.064;8.624;2024-01-25T06:03:23;7.00;99.90
9998;DHT22;5038;53.064;8.624;2024-01-25T06:05:52;7.00;99.90
9998;DHT22;5038;53.064;8.624;2024-01-25T06:08:20;6.90;99.90
9998;DHT22;5038;53.064;8.624;2024-01-25T06:10:48;6.90;99.90
9998;DHT22;5038;53.064;8.624;2024-01-25T06:13:17;6.90;99.90
9998;DHT22;5038;53.064;8.624;2024-01-25T06:15:45;6.90;99.90
9998;DHT22;5038;53.064;8.624;2024-01-25T06:18:13;6.90;99.90
9998;DHT22;5038;53.064;8.624;2024-01-25T06:20:43;6.90;99.90
9998;DHT22;5038;53.064;8.624;2024-01-25T06:23:11;6.90;99.90
9998;DHT22;5038;53.064;8.624;2024-01-25T06:25:40;6.90;99.90
9998;DHT22;5038;53.064;8.624;2024-01-25T06:28:08;6.90;99.90
9998;DHT22;5038;53.064;8.624;2024-01-25T06:30:36;6.90;99.90
9998;DHT22;5038;53.064;8.624;2024-01-25T06:33:05;6.80;99.90
9998;DHT22;5038;53.064;8.624;2024-01-25T06:35:34;6.80;99.90
9998;DHT22;5038;53.064;8.624;2024-01-25T06:38:04;6.80;99.90
9998;DHT22;5038;53.064;8.624;2024-01-25T06:40:32;6.80;99.90
9998;DHT22;5038;53.064;8.624;2024-01-25T06:43:01;6.80;99.90
9998;DHT22;5038;53.064;8.624;2024-01-25T06:45:29;6.80;99.90
9998;DHT22;5038;53.064;8.624;2024-01-25T06:47:57;6.70;99.90
9998;DHT22;5038;53.064;8.624;2024-01-25T06:50:25;6.70;99.90
9998;DHT22;5038;53.064;8.624;2024-01-25T06:52:54;6.70;99.90
9998;DHT22;5038;53.064;8.624;2024-01-25T06:55:24;6.70;99.90
9998;DHT22;5038;53.064;8.624;2024-01-25T06:57:53;6.70;99.90
9998;DHT22;5038;53.064;8.624;2024-01-25T07:00:21;6.70;99.90
9998;DHT22;5038;53.064;8.624;2024-01-25T07:02:50;6.70;99.90
9998;DHT22;5038;53.064;8.624;2024-01-25T07:05:19;6.70;99.90
9998;DHT22;5038;53.064;8.624;2024-01-25T07:07:47;6.70;99.90
9998;DHT22;5038;53.064;8.624;2024-01-25T07:10:16;6.70;99.90
9998;DHT22;5038;53.064;8.624;2024-01-25T07:12:46;6.70;99.90
9998;DHT22;5038;53.064;8.624;2024-01-25T07:15:14;6.70;99.90
9998;DHT22;5038;53.064;8.624;2024-01-25T07:17:42;6.70;99.90
9998;DHT22;5038;53.064;8.624;2024-01-25T07:20:11;6.70;99.90
9998;DHT22;5038;53.064;8.624;2024-01-25T07:22:40;6.80;99.90
9998;DHT22;5038;53.064;8.624;2024-01-25T07:25:08;6.80;99.90
9998;DHT22;5038;53.064;8.624;2024-01-25T07:27:36;6.80;99.90
9998;DHT22;5038;53.064;8.624;2024-01-25T07:30:08;6.80;99.90
9998;DHT22;5038;53.064;8.624;2024-01-25T07:32:36;6.70;99.90
9998;DHT22;5038;53.064;8.624;2024-01-25T07:35:06;6.80;99.90
9998;DHT22;5038;53.064;8.624;2024-01-25T07:37:34;6.80;99.90
9998;DHT22;5038;53.064;8.624;2024-01-25T07:40:03;6.70;99.90
9998;DHT22;5038;53.064;8.624;2024-01-25T07:42:31;6.80;99.90
9998;DHT22;5038;53.064;8.624;2024-01-25T07:45:00;6.70;99.90
9998;DHT22;5038;53.064;8.624;2024-01-25T07:47:30;6.80;99.90
9998;DHT22;5038;53.064;8.624;2024-01-25T07:49:58;6.80;99.90
9998;DHT22;5038;53.064;8.624;2024-01-25T07:52:27;6.80;99.90
9998;DHT22;5038;53.064;8.624;2024-01-25T07:54:55;6.80;99.90
9998;DHT22;5038;53.064;8.624;2024-01-25T07:57:23;6.80;99.90
9998;DHT22;5038;53.064;8.624;2024-01-25T07:59:51;6.80;99.90
9998;DHT22;5038;53.064;8.624;2024-01-25T08:02:20;6.80;99.90
9998;DHT22;5038;53.064;8.624;2024-01-25T08:04:50;6.80;99.90
9998;DHT22;5038;53.064;8.624;2024-01-25T08:07:18;6.80;99.90
9998;DHT22;5038;53.064;8.624;2024-01-25T08:09:47;6.80;99.90
9998;DHT22;5038;53.064;8.624;2024-01-25T08:12:18;6.80;99.90
9998;DHT22;5038;53.064;8.624;2024-01-25T08:14:47;6.90;99.90
9998;DHT22;5038;53.064;8.624;2024-01-25T08:17:15;6.90;99.90
9998;DHT22;5038;53.064;8.624;2024-01-25T08:19:43;6.90;99.90
9998;DHT22;5038;53.064;8.624;2024-01-25T08:22:15;6.90;99.90
9998;DHT22;5038;53.064;8.624;2024-01-25T08:24:46;6.90;99.90
9998;DHT22;5038;53.064;8.624;2024-01-25T08:27:15;6.90;99.90
9998;DHT22;5038;53.064;8.624;2024-01-25T08:29:44;6.90;99.90
9998;DHT22;5038;53.064;8.624;2024-01-25T08:32:12;6.90;99.90
9998;DHT22;5038;53.064;8.624;2024-01-25T08:34:41;6.90;99.90
9998;DHT22;5038;53.064;8.624;2024-01-25T08:37:09;7.00;99.90
9998;DHT22;5038;53.064;8.624;2024-01-25T08:39:39;7.00;99.90
9998;DHT22;5038;53.064;8.624;2024-01-25T08:42:07;7.00;99.90
9998;DHT22;5038;53.064;8.624;2024-01-25T08:44:35;7.00;99.90
9998;DHT22;5038;53.064;8.624;2024-01-25T08:47:05;7.00;99.90
9998;DHT22;5038;53.064;8.624;2024-01-25T08:49:38;7.00;99.90
9998;DHT22;5038;53.064;8.624;2024-01-25T08:52:06;7.00;99.90
9998;DHT22;5038;53.064;8.624;2024-01-25T08:54:35;7.00;99.90
9998;DHT22;5038;53.064;8.624;2024-01-25T08:57:05;7.00;99.90
9998;DHT22;5038;53.064;8.624;2024-01-25T08:59:34;7.00;99.90
9998;DHT22;5038;53.064;8.624;2024-01-25T09:02:04;7.00;99.90
9998;DHT22;5038;53.064;8.624;2024-01-25T09:04:33;7.00;99.90
9998;DHT22;5038;53.064;8.624;2024-01-25T09:07:02;7.00;99.90
9998;DHT22;5038;53.064;8.624;2024-01-25T09:09:30;7.00;99.90
9998;DHT22;5038;53.064;8.624;2024-01-25T09:11:59;7.10;99.90
9998;DHT22;5038;53.064;8.624;2024-01-25T09:14:28;7.00;99.90
9998;DHT22;5038;53.064;8.624;2024-01-25T09:16:59;7.10;99.90
9998;DHT22;5038;53.064;8.624;2024-01-25T09:19:27;7.10;99.90
9998;DHT22;5038;53.064;8.624;2024-01-25T09:21:55;7.10;99.90
9998;DHT22;5038;53.064;8.624;2024-01-25T09:24:28;7.10;99.90
9998;DHT22;5038;53.064;8.624;2024-01-25T09:26:56;7.10;99.90
9998;DHT22;5038;53.064;8.624;2024-01-25T09:29:26;7.10;99.90
9998;DHT22;5038;53.064;8.624;2024-01-25T09:31:55;7.10;99.90
9998;DHT22;5038;53.064;8.624;2024-01-25T09:34:24;7.10;99.90
9998;DHT22;5038;53.064;8.624;2024-01-25T09:36:53;7.20;99.90
9998;DHT22;5038;53.064;8.624;2024-01-25T09:39:21;7.20;99.90
9998;DHT22;5038;53.064;8.624;2024-01-25T09:41:50;7.20;99.90
9998;DHT22;5038;53.064;8.624;2024-01-25T09:44:18;7.20;99.90
9998;DHT22;5038;53.064;8.624;2024-01-25T09:46:47;7.20;99.90
9998;DHT22;5038;53.064;8.624;2024-01-25T09:49:17;7.20;99.90
9998;DHT22;5038;53.064;8.624;2024-01-25T09:51:46;7.20;99.90
9998;DHT22;5038;53.064;8.624;2024-01-25T09:54:17;7.30;99.90
9998;DHT22;5038;53.064;8.624;2024-01-25T09:56:45;7.30;99.90
9998;DHT22;5038;53.064;8.624;2024-01-25T09:59:18;7.30;99.90
9998;DHT22;5038;53.064;8.624;2024-01-25T10:01:46;7.30;99.90
9998;DHT22;5038;53.064;8.624;2024-01-25T10:04:18;7.30;99.90
9998;DHT22;5038;53.064;8.624;2024-01-25T10:06:49;7.40;99.90
9998;DHT22;5038;53.064;8.624;2024-01-25T10:09:17;7.40;99.90
9998;DHT22;5038;53.064;8.624;2024-01-25T10:11:46;7.30;99.90
9998;DHT22;5038;53.064;8.624;2024-01-25T10:14:16;7.30;99.90
9998;DHT22;5038;53.064;8.624;2024-01-25T10:16:45;7.30;99.90
9998;DHT22;5038;53.064;8.624;2024-01-25T10:19:13;7.30;99.90
9998;DHT22;5038;53.064;8.624;2024-01-25T10:21:44;7.30;99.90
9998;DHT22;5038;53.064;8.624;2024-01-25T10:24:13;7.30;99.90
9998;DHT22;5038;53.064;8.624;2024-01-25T10:26:42;7.30;99.90
9998;DHT22;5038;53.064;8.624;2024-01-25T10:29:10;7.30;99.90
9998;DHT22;5038;53.064;8.624;2024-01-25T10:31:39;7.30;99.90
9998;DHT22;5038;53.064;8.624;2024-01-25T10:34:09;7.30;99.90
9998;DHT22;5038;53.064;8.624;2024-01-25T10:36:39;7.30;99.90
9998;DHT22;5038;53.064;8.624;2024-01-25T10:39:10;7.40;99.90
9998;DHT22;5038;53.064;8.624;2024-01-25T10:41:40;7.40;99.90
9998;DHT22;5038;53.064;8.624;2024-01-25T10:44:08;7.40;99.90
9998;DHT22;5038;53.064;8.624;2024-01-25T10:46:37;7.40;99.90
9998;DHT22;5038;53.064;8.624;2024-01-25T10:49:07;7.50;99.90
9998;DHT22;5038;53.064;8.624;2024-01-25T10:51:36;7.50;99.90
9998;DHT22;5038;53.064;8.624;2024-01-25T10:54:06;7.50;99.90
9998;DHT22;5038;53.064;8.624;2024-01-25T10:56:36;7.50;99.90
9998;DHT22;5038;53.064;8.624;2024-01-25T10:59:05;7.50;99.90
9998;DHT22;5038;53.064;8.624;2024-01-25T11:01:33;7.60;99.90
9998;DHT22;5038;53.064;8.624;2024-01-25T11:04:02;7.60;99.90
9998;DHT22;5038;53.064;8.624;2024-01-25T11:06:31;7.60;99.90
9998;DHT22;5038;53.064;8.624;2024-01-25T11:09:06;7.60;99.90
9998;DHT22;5038;53.064;8.624;2024-01-25T11:11:37;7.70;99.90
9998;DHT22;5038;53.064;8.624;2024-01-25T11:14:21;7.70;99.90
9998;DHT22;5038;53.064;8.624;2024-01-25T11:17:19;7.70;99.90
9998;DHT22;5038;53.064;8.624;2024-01-25T11:19:48;7.60;99.90
9998;DHT22;5038;53.064;8.624;2024-01-25T11:22:17;7.60;99.90
9998;DHT22;5038;53.064;8.624;2024-01-25T11:24:46;7.70;99.90
9998;DHT22;5038;53.064;8.624;2024-01-25T11:27:17;7.70;99.90
9998;DHT22;5038;53.064;8.624;2024-01-25T11:29:45;7.70;99.90
9998;DHT22;5038;53.064;8.624;2024-01-25T11:32:13;7.70;99.90
9998;DHT22;5038;53.064;8.624;2024-01-25T11:34:41;7.70;99.90
9998;DHT22;5038;53.064;8.624;2024-01-25T11:37:10;7.70;99.90
9998;DHT22;5038;53.064;8.624;2024-01-25T11:39:38;7.70;99.90
9998;DHT22;5038;53.064;8.624;2024-01-25T11:42:07;7.70;99.90
9998;DHT22;5038;53.064;8.624;2024-01-25T11:44:36;7.70;99.90
9998;DHT22;5038;53.064;8.624;2024-01-25T11:47:06;7.70;99.90
9998;DHT22;5038;53.064;8.624;2024-01-25T11:49:35;7.70;99.90
9998;DHT22;5038;53.064;8.624;2024-01-25T11:52:04;7.70;99.90
9998;DHT22;5038;53.064;8.624;2024-01-25T11:54:35;7.70;99.90
9998;DHT22;5038;53.064;8.624;2024-01-25T11:57:04;7.70;99.90
9998;DHT22;5038;53.064;8.624;2024-01-25T11:59:33;7.70;99.90
9998;DHT22;5038;53.064;8.624;2024-01-25T12:02:03;7.70;99.90
9998;DHT22;5038;53.064;8.624;2024-01-25T12:04:31;7.70;99.90
9998;DHT22;5038;53.064;8.624;2024-01-25T12:07:03;7.80;99.90
9998;DHT22;5038;53.064;8.624;2024-01-25T12:09:32;7.80;99.90
9998;DHT22;5038;53.064;8.624;2024-01-25T12:12:01;7.80;99.90
9998;DHT22;5038;53.064;8.624;2024-01-25T12:14:30;7.90;99.90
9998;DHT22;5038;53.064;8.624;2024-01-25T12:16:58;7.90;99.90
9998;DHT22;5038;53.064;8.624;2024-01-25T12:19:28;7.90;99.90
9998;DHT22;5038;53.064;8.624;2024-01-25T12:21:56;8.00;99.90
9998;DHT22;5038;53.064;8.624;2024-01-25T12:24:25;8.00;99.90
9998;DHT22;5038;53.064;8.624;2024-01-25T12:26:54;8.00;99.90
9998;DHT22;5038;53.064;8.624;2024-01-25T12:29:23;8.00;99.90
9998;DHT22;5038;53.064;8.624;2024-01-25T12:31:51;8.00;99.90
9998;DHT22;5038;53.064;8.624;2024-01-25T12:34:19;8.00;99.90
9998;DHT22;5038;53.064;8.624;2024-01-25T12:36:49;8.00;99.90
9998;DHT22;5038;53.064;8.624;2024-01-25T12:39:19;8.00;99.90
9998;DHT22;5038;53.064;8.624;2024-01-25T12:41:47;8.00;99.90
9998;DHT22;5038;53.064;8.624;2024-01-25T12:44:18;8.00;99.90
9998;DHT22;5038;53.064;8.624;2024-01-25T12:46:46;8.00;99.90
9998;DHT22;5038;53.064;8.624;2024-01-25T12:49:14;8.00;99.90
9998;DHT22;5038;53.064;8.624;2024-01-25T12:51:43;8.00;99.90
9998;DHT22;5038;53.064;8.624;2024-01-25T12:54:13;8.00;99.90
9998;DHT22;5038;53.064;8.624;2024-01-25T12:56:41;8.10;99.90
9998;DHT22;5038;53.064;8.624;2024-01-25T12:59:10;8.10;99.90
9998;DHT22;5038;53.064;8.624;2024-01-25T13:01:38;8.10;99.90
9998;DHT22;5038;53.064;8.624;2024-01-25T13:04:07;8.10;99.90
9998;DHT22;5038;53.064;8.624;2024-01-25T13:06:36;8.20;99.90
9998;DHT22;5038;53.064;8.624;2024-01-25T13:09:05;8.20;99.90
9998;DHT22;5038;53.064;8.624;2024-01-25T13:11:34;8.20;99.90
9998;DHT22;5038;53.064;8.624;2024-01-25T13:14:03;8.20;99.90
9998;DHT22;5038;53.064;8.624;2024-01-25T13:16:31;8.20;99.90
9998;DHT22;5038;53.064;8.624;2024-01-25T13:18:59;8.30;99.90
9998;DHT22;5038;53.064;8.624;2024-01-25T13:21:28;8.30;99.90
9998;DHT22;5038;53.064;8.624;2024-01-25T13:23:56;8.30;99.90
9998;DHT22;5038;53.064;8.624;2024-01-25T13:26:24;8.30;99.90
9998;DHT22;5038;53.064;8.624;2024-01-25T13:28:54;8.40;99.90
9998;DHT22;5038;53.064;8.624;2024-01-25T13:31:22;8.40;99.90
9998;DHT22;5038;53.064;8.624;2024-01-25T13:33:51;8.40;99.90
9998;DHT22;5038;53.064;8.624;2024-01-25T13:36:19;8.40;99.90
9998;DHT22;5038;53.064;8.624;2024-01-25T13:38:47;8.40;99.90
9998;DHT22;5038;53.064;8.624;2024-01-25T13:41:15;8.40;99.90
9998;DHT22;5038;53.064;8.624;2024-01-25T13:43:44;8.40;99.90
9998;DHT22;5038;53.064;8.624;2024-01-25T13:46:13;8.40;99.90
9998;DHT22;5038;53.064;8.624;2024-01-25T13:48:43;8.40;99.90
9998;DHT22;5038;53.064;8.624;2024-01-25T13:51:12;8.40;99.90
9998;DHT22;5038;53.064;8.624;2024-01-25T13:53:41;8.40;99.90
9998;DHT22;5038;53.064;8.624;2024-01-25T13:56:09;8.40;99.90
9998;DHT22;5038;53.064;8.624;2024-01-25T13:58:38;8.40;99.90
9998;DHT22;5038;53.064;8.624;2024-01-25T14:01:06;8.40;99.90
9998;DHT22;5038;53.064;8.624;2024-01-25T14:03:36;8.30;99.90
9998;DHT22;5038;53.064;8.624;2024-01-25T14:06:04;8.30;99.90
9998;DHT22;5038;53.064;8.624;2024-01-25T14:08:36;8.40;99.90
9998;DHT22;5038;53.064;8.624;2024-01-25T14:11:05;8.30;99.90
9998;DHT22;5038;53.064;8.624;2024-01-25T14:13:34;8.40;99.90
9998;DHT22;5038;53.064;8.624;2024-01-25T14:16:02;8.40;99.90
9998;DHT22;5038;53.064;8.624;2024-01-25T14:18:38;8.40;99.90
9998;DHT22;5038;53.064;8.624;2024-01-25T14:21:07;8.40;99.90
9998;DHT22;5038;53.064;8.624;2024-01-25T14:23:35;8.50;99.90
9998;DHT22;5038;53.064;8.624;2024-01-25T14:26:04;8.50;99.90
9998;DHT22;5038;53.064;8.624;2024-01-25T14:28:32;8.50;99.90
9998;DHT22;5038;53.064;8.624;2024-01-25T14:31:00;8.50;99.90
9998;DHT22;5038;53.064;8.624;2024-01-25T14:33:29;8.50;99.90
9998;DHT22;5038;53.064;8.624;2024-01-25T14:35:59;8.50;99.90
9998;DHT22;5038;53.064;8.624;2024-01-25T14:38:27;8.50;99.90
9998;DHT22;5038;53.064;8.624;2024-01-25T14:40:55;8.50;99.90
9998;DHT22;5038;53.064;8.624;2024-01-25T14:43:28;8.40;99.90
9998;DHT22;5038;53.064;8.624;2024-01-25T14:45:56;8.50;99.90
9998;DHT22;5038;53.064;8.624;2024-01-25T14:48:25;8.40;99.90
9998;DHT22;5038;53.064;8.624;2024-01-25T14:50:53;8.40;99.90
9998;DHT22;5038;53.064;8.624;2024-01-25T14:53:23;8.40;99.90
9998;DHT22;5038;53.064;8.624;2024-01-25T14:55:51;8.40;99.90
9998;DHT22;5038;53.064;8.624;2024-01-25T14:58:19;8.40;99.90
9998;DHT22;5038;53.064;8.624;2024-01-25T15:00:50;8.40;99.90
9998;DHT22;5038;53.064;8.624;2024-01-25T15:03:19;8.40;99.90
9998;DHT22;5038;53.064;8.624;2024-01-25T15:05:48;8.40;99.90
9998;DHT22;5038;53.064;8.624;2024-01-25T15:08:17;8.40;99.90
9998;DHT22;5038;53.064;8.624;2024-01-25T15:10:46;8.30;99.90
9998;DHT22;5038;53.064;8.624;2024-01-25T15:13:14;8.30;99.90
9998;DHT22;5038;53.064;8.624;2024-01-25T15:15:42;8.30;99.90
9998;DHT22;5038;53.064;8.624;2024-01-25T15:18:11;8.30;99.90
9998;DHT22;5038;53.064;8.624;2024-01-25T15:20:40;8.30;99.90
9998;DHT22;5038;53.064;8.624;2024-01-25T15:23:08;8.20;99.90
9998;DHT22;5038;53.064;8.624;2024-01-25T15:25:36;8.20;99.90
9998;DHT22;5038;53.064;8.624;2024-01-25T15:28:06;8.20;99.90
9998;DHT22;5038;53.064;8.624;2024-01-25T15:30:35;8.20;99.90
9998;DHT22;5038;53.064;8.624;2024-01-25T15:33:03;8.10;99.90
9998;DHT22;5038;53.064;8.624;2024-01-25T15:35:33;8.10;99.90
9998;DHT22;5038;53.064;8.624;2024-01-25T15:38:01;8.10;99.90
9998;DHT22;5038;53.064;8.624;2024-01-25T15:40:32;8.00;99.90
9998;DHT22;5038;53.064;8.624;2024-01-25T15:43:00;8.00;99.90
9998;DHT22;5038;53.064;8.624;2024-01-25T15:45:30;8.00;99.90
9998;DHT22;5038;53.064;8.624;2024-01-25T15:47:58;8.00;99.90
9998;DHT22;5038;53.064;8.624;2024-01-25T15:50:27;7.90;99.90
9998;DHT22;5038;53.064;8.624;2024-01-25T15:52:55;7.90;99.90
9998;DHT22;5038;53.064;8.624;2024-01-25T15:55:23;7.90;99.90
9998;DHT22;5038;53.064;8.624;2024-01-25T15:57:52;7.80;99.90
9998;DHT22;5038;53.064;8.624;2024-01-25T16:00:20;7.80;99.90
9998;DHT22;5038;53.064;8.624;2024-01-25T16:02:50;7.80;99.90
9998;DHT22;5038;53.064;8.624;2024-01-25T16:05:20;7.80;99.90
9998;DHT22;5038;53.064;8.624;2024-01-25T16:07:49;7.70;99.90
9998;DHT22;5038;53.064;8.624;2024-01-25T16:10:17;7.70;99.90
9998;DHT22;5038;53.064;8.624;2024-01-25T16:12:47;7.70;99.90
9998;DHT22;5038;53.064;8.624;2024-01-25T16:15:17;7.70;99.90
9998;DHT22;5038;53.064;8.624;2024-01-25T16:17:46;7.70;99.90
9998;DHT22;5038;53.064;8.624;2024-01-25T16:20:16;7.60;99.90
9998;DHT22;5038;53.064;8.624;2024-01-25T16:22:47;7.60;99.90
9998;DHT22;5038;53.064;8.624;2024-01-25T16:25:16;7.60;99.90
9998;DHT22;5038;53.064;8.624;2024-01-25T16:27:46;7.60;99.90